Time;durP1;ratioP1;P1;durP2;ratioP2;P2;SDS_P1;SDS_P2;PMS_P1;PMS_P2;Temp;Humidity;BMP_temperature;BMP_pressure;BME280_temperature;BME280_humidity;BME280_pressure;Samples;Min_cycle;Max_cycle;Signal;HPM_P1;HPM_P2
2022/02/12 00:01:33;;;;;;;29.20;16.10;;;;;;;4.73;69.70;99676.54;25128;1315;3051450;-67
2022/02/12 00:04:03;;;;;;;30.20;16.50;;;;;;;4.74;69.02;99674.76;25185;1315;3026456;-66
2022/02/12 00:06:32;;;;;;;26.80;14.00;;;;;;;4.73;68.63;99671.70;25195;1315;3026520;-63
2022/02/12 00:09:02;;;;;;;29.50;15.60;;;;;;;4.62;68.16;99673.24;25150;1315;3026661;-64
2022/02/12 00:11:31;;;;;;;28.00;15.90;;;;;;;4.49;68.80;99672.79;25140;1315;3028100;-65
2022/02/12 00:14:01;;;;;;;34.20;17.30;;;;;;;4.43;69.32;99669.89;25173;1315;3026532;-65
2022/02/12 00:16:30;;;;;;;35.90;18.00;;;;;;;4.43;69.48;99670.39;25079;1316;3026636;-66
2022/02/12 00:19:00;;;;;;;35.60;16.90;;;;;;;4.42;69.47;99672.00;25072;1315;3026406;-65
2022/02/12 00:21:29;;;;;;;31.20;15.70;;;;;;;4.41;69.12;99666.12;25086;1316;3052239;-67
2022/02/12 00:24:00;;;;;;;28.30;14.40;;;;;;;4.38;69.13;99666.02;25103;1315;3026564;-64
2022/02/12 00:26:29;;;;;;;29.60;15.60;;;;;;;4.41;68.79;99664.38;25151;1316;3026768;-66
2022/02/12 00:28:58;;;;;;;34.00;15.20;;;;;;;4.40;68.81;99663.55;25140;1315;3028182;-65
2022/02/12 00:31:27;;;;;;;28.10;15.30;;;;;;;4.39;68.74;99665.14;25144;1315;3067463;-67
2022/02/12 00:33:56;;;;;;;31.80;15.40;;;;;;;4.35;69.19;99662.50;25172;1315;3027184;-66
2022/02/12 00:36:25;;;;;;;28.10;14.20;;;;;;;4.30;69.51;99662.64;25171;1316;3050794;-65
2022/02/12 00:38:55;;;;;;;31.20;15.50;;;;;;;4.84;68.58;99661.59;25084;1315;3026793;-67
2022/02/12 00:41:24;;;;;;;28.60;14.70;;;;;;;5.48;66.72;99656.05;25153;1315;3026195;-64
2022/02/12 00:43:53;;;;;;;32.80;16.90;;;;;;;5.63;65.61;99653.41;25100;1315;3050905;-64
2022/02/12 00:46:22;;;;;;;41.10;20.10;;;;;;;5.54;66.21;99658.97;25109;1315;3026801;-67
2022/02/12 00:48:51;;;;;;;44.60;21.90;;;;;;;5.36;66.59;99658.58;25070;1315;3054616;-65
2022/02/12 00:51:20;;;;;;;47.10;22.20;;;;;;;5.15;67.49;99662.61;25159;1315;3027530;-65
2022/02/12 00:53:49;;;;;;;53.60;22.30;;;;;;;5.05;68.01;99658.78;25104;1315;3050161;-65
2022/02/12 00:56:18;;;;;;;48.90;21.00;;;;;;;4.92;68.04;99660.10;25120;1315;3028354;-64
2022/02/12 00:58:47;;;;;;;50.10;22.10;;;;;;;4.87;68.13;99667.41;25164;1315;3058659;-69
2022/02/12 01:01:16;;;;;;;46.40;21.80;;;;;;;4.79;68.27;99670.77;25061;1316;3026339;-64
2022/02/12 01:03:46;;;;;;;50.60;22.00;;;;;;;4.69;68.81;99670.77;25137;1315;3026714;-66
2022/02/12 01:06:15;;;;;;;45.80;21.30;;;;;;;4.62;69.08;99672.75;25130;1315;3054435;-65
2022/02/12 01:08:45;;;;;;;42.60;20.70;;;;;;;4.56;69.00;99672.94;25076;1315;3026321;-68
2022/02/12 01:11:15;;;;;;;36.30;17.90;;;;;;;4.52;68.65;99674.98;25105;1314;3026320;-68
2022/02/12 01:13:45;;;;;;;43.10;19.10;;;;;;;4.37;69.26;99674.58;25090;1315;3026960;-64
2022/02/12 01:16:14;;;;;;;31.80;16.50;;;;;;;4.32;69.52;99675.06;25152;1315;3027022;-66
2022/02/12 01:18:43;;;;;;;42.60;17.50;;;;;;;4.14;69.61;99675.63;25125;1316;3052817;-67
2022/02/12 01:21:12;;;;;;;34.60;16.80;;;;;;;4.09;69.95;99677.20;25138;1315;3026585;-66
2022/02/12 01:23:41;;;;;;;35.30;17.60;;;;;;;4.09;69.89;99683.08;25086;1315;3052371;-65
2022/02/12 01:26:10;;;;;;;31.00;16.40;;;;;;;4.09;69.88;99675.09;25172;1315;3026399;-66
2022/02/12 01:28:39;;;;;;;34.90;17.50;;;;;;;4.11;69.62;99675.56;25089;1316;3056367;-66
2022/02/12 01:31:08;;;;;;;25.00;13.50;;;;;;;4.13;69.52;99668.05;25017;1315;3026823;-65
2022/02/12 01:33:37;;;;;;;26.90;14.30;;;;;;;4.62;68.53;99659.34;25080;1315;3051664;-66
2022/02/12 01:36:06;;;;;;;29.40;16.70;;;;;;;5.33;67.36;99649.64;25144;1315;3026577;-67
2022/02/12 01:38:37;;;;;;;29.30;17.70;;;;;;;5.50;66.09;99644.68;25124;1315;3055453;-66
2022/02/12 01:41:06;;;;;;;24.90;15.80;;;;;;;5.49;66.48;99646.46;25168;1316;3026278;-65
2022/02/12 01:43:36;;;;;;;23.10;11.70;;;;;;;5.40;66.11;99649.40;25159;1315;3051459;-68
2022/02/12 01:46:05;;;;;;;25.80;15.70;;;;;;;5.16;65.76;99653.88;25098;1315;3026339;-64
2022/02/12 01:48:34;;;;;;;22.30;12.10;;;;;;;5.05;66.69;99658.97;25032;1315;3071024;-66
2022/02/12 01:51:03;;;;;;;22.00;11.80;;;;;;;4.88;66.33;99657.13;25158;1315;3028262;-69
2022/02/12 01:53:31;;;;;;;22.50;13.50;;;;;;;4.76;67.11;99660.66;25087;1315;3051535;-67
2022/02/12 01:56:00;;;;;;;28.50;14.60;;;;;;;4.64;67.52;99662.44;25070;1315;3026796;-65
2022/02/12 01:58:29;;;;;;;24.80;13.40;;;;;;;4.63;67.55;99666.27;25151;1315;3052452;-64
2022/02/12 02:00:58;;;;;;;28.80;15.60;;;;;;;4.58;67.68;99661.59;25200;1315;3026402;-66
2022/02/12 02:03:28;;;;;;;27.60;15.00;;;;;;;4.48;68.37;99664.50;25078;1316;3052162;-67
2022/02/12 02:05:59;;;;;;;29.30;15.30;;;;;;;4.41;68.50;99667.00;25101;1315;3028001;-66
2022/02/12 02:08:28;;;;;;;28.20;15.50;;;;;;;4.35;68.74;99668.74;25095;1316;3028563;-65
2022/02/12 02:10:58;;;;;;;25.30;14.10;;;;;;;4.36;68.74;99666.28;25098;1315;3027116;-65
2022/02/12 02:13:27;;;;;;;24.90;13.00;;;;;;;4.35;68.68;99662.48;25107;1315;3026486;-67
2022/02/12 02:15:56;;;;;;;28.20;14.40;;;;;;;4.36;68.72;99665.59;25046;1315;3051253;-64
2022/02/12 02:18:25;;;;;;;28.80;16.10;;;;;;;4.36;68.93;99671.48;25100;1315;3026882;-64
2022/02/12 02:20:54;;;;;;;24.90;14.00;;;;;;;4.36;68.74;99672.35;25084;1316;3052395;-67
2022/02/12 02:23:23;;;;;;;29.40;15.20;;;;;;;4.36;68.53;99668.03;25079;1315;3026357;-65
2022/02/12 02:25:53;;;;;;;29.60;15.50;;;;;;;4.32;68.68;99669.17;25122;1315;3026468;-65
2022/02/12 02:28:22;;;;;;;29.70;15.30;;;;;;;4.31;68.70;99668.00;25139;1314;3026302;-65
2022/02/12 02:30:51;;;;;;;33.00;16.80;;;;;;;4.31;68.79;99670.08;25146;1315;3049717;-65
2022/02/12 02:33:20;;;;;;;30.00;16.10;;;;;;;4.32;68.82;99671.95;25087;1314;3027081;-64
2022/02/12 02:35:49;;;;;;;31.40;16.20;;;;;;;4.33;68.72;99668.80;25111;1315;3026473;-67
2022/02/12 02:38:19;;;;;;;27.80;16.20;;;;;;;4.34;68.72;99673.63;25056;1315;3051182;-65
2022/02/12 02:40:52;;;;;;;30.60;14.90;;;;;;;4.37;68.45;99673.89;25129;1315;3026733;-64
2022/02/12 02:43:22;;;;;;;32.20;15.30;;;;;;;4.38;68.33;99672.11;25160;1315;3026952;-66
2022/02/12 02:45:51;;;;;;;30.10;15.10;;;;;;;4.40;68.16;99666.67;25146;1316;3028566;-67
2022/02/12 02:48:22;;;;;;;32.20;15.40;;;;;;;4.38;68.48;99665.34;25090;1316;3027248;-65
2022/02/12 02:56:26;;;;;;;33.30;15.60;;;;;;;4.32;68.55;99664.68;25111;1315;3054800;-63
2022/02/12 02:58:59;;;;;;;38.80;16.80;;;;;;;4.32;68.85;99661.54;25086;1316;3027032;-66
2022/02/12 03:01:28;;;;;;;33.10;16.60;;;;;;;4.36;68.81;99662.13;25129;1315;3051251;-66
2022/02/12 03:03:58;;;;;;;37.30;17.90;;;;;;;4.41;68.85;99662.66;25109;1315;3027607;-66
2022/02/12 03:06:28;;;;;;;41.40;19.20;;;;;;;4.50;68.48;99665.83;25165;1315;3026566;-65
2022/02/12 03:08:57;;;;;;;41.40;21.00;;;;;;;4.53;68.30;99663.65;25095;1314;3030218;-65
2022/02/12 03:11:27;;;;;;;49.70;23.10;;;;;;;4.51;68.62;99661.46;25096;1315;3026488;-66
2022/02/12 03:13:56;;;;;;;38.60;21.50;;;;;;;4.49;68.62;99662.20;25156;1315;3026687;-64
2022/02/12 03:16:25;;;;;;;49.00;23.50;;;;;;;4.49;68.89;99666.73;25104;1315;3048797;-68
2022/02/12 03:18:54;;;;;;;53.10;24.10;;;;;;;4.45;69.03;99666.16;25181;1315;3026764;-65
2022/02/12 03:21:24;;;;;;;59.00;26.00;;;;;;;4.43;69.20;99668.66;25131;1315;3055431;-67
2022/02/12 03:23:53;;;;;;;65.90;27.80;;;;;;;4.42;69.49;99670.60;25106;1315;3026287;-64
2022/02/12 03:26:23;;;;;;;51.60;26.90;;;;;;;4.46;69.35;99664.92;25190;1315;3025951;-68
2022/02/12 03:28:52;;;;;;;55.80;29.10;;;;;;;4.44;69.33;99663.92;25083;1315;3055195;-64
2022/02/12 03:31:21;;;;;;;53.40;29.20;;;;;;;4.46;69.41;99659.20;25170;1315;3026396;-63
2022/02/12 03:33:50;;;;;;;54.20;27.60;;;;;;;4.46;69.32;99650.85;25091;1315;3026270;-65
2022/02/12 03:36:19;;;;;;;58.00;31.40;;;;;;;4.44;69.44;99646.94;25117;1315;3058146;-68
2022/02/12 03:38:49;;;;;;;56.30;28.40;;;;;;;4.44;69.73;99650.06;25055;1315;3027803;-66
2022/02/12 03:41:18;;;;;;;51.70;28.40;;;;;;;5.03;68.68;99645.66;25112;1315;3053065;-66
2022/02/12 03:43:46;;;;;;;52.80;27.80;;;;;;;5.67;66.48;99634.87;25134;1315;3026169;-68
2022/02/12 03:46:15;;;;;;;57.60;32.00;;;;;;;5.88;65.90;99626.94;25114;1315;3050226;-63
2022/02/12 03:48:45;;;;;;;64.00;34.50;;;;;;;5.74;65.70;99626.58;25128;1315;3026196;-65
2022/02/12 03:51:17;;;;;;;55.60;31.60;;;;;;;5.55;65.92;99618.79;25082;1314;3026376;-68
2022/02/12 03:53:47;;;;;;;53.70;29.50;;;;;;;5.41;66.51;99618.60;25123;1315;3054495;-65
2022/02/12 03:56:16;;;;;;;50.30;27.20;;;;;;;5.24;66.58;99617.66;25095;1315;3026619;-65
2022/02/12 03:58:48;;;;;;;50.00;26.30;;;;;;;5.08;67.02;99614.22;25115;1315;3048867;-65
2022/02/12 04:01:17;;;;;;;54.40;26.30;;;;;;;4.79;67.63;99618.55;25208;1315;3028816;-63
2022/02/12 04:03:47;;;;;;;52.90;27.30;;;;;;;4.62;68.41;99620.86;25155;1316;3026660;-64
2022/02/12 04:06:16;;;;;;;48.70;26.80;;;;;;;4.36;69.12;99620.48;25127;1315;3050938;-67
2022/02/12 04:08:45;;;;;;;51.60;27.60;;;;;;;4.23;69.92;99615.02;25176;1315;3027313;-66
2022/02/12 04:11:14;;;;;;;53.10;26.80;;;;;;;4.14;70.42;99620.50;25078;1315;3025900;-64
2022/02/12 04:13:46;;;;;;;51.50;27.30;;;;;;;4.23;70.21;99624.90;25087;1316;3047923;-65
2022/02/12 04:16:15;;;;;;;51.00;27.90;;;;;;;4.19;70.66;99627.11;25151;1315;3030025;-64
2022/02/12 04:18:45;;;;;;;48.50;26.20;;;;;;;4.10;71.32;99623.08;25156;1314;3026227;-64
2022/02/12 04:21:14;;;;;;;52.90;26.50;;;;;;;4.01;72.09;99616.38;25051;1315;3048875;-68
2022/02/12 04:23:43;;;;;;;50.10;27.50;;;;;;;4.03;71.84;99612.89;25151;1315;3026403;-65
2022/02/12 04:26:12;;;;;;;43.80;23.90;;;;;;;4.07;71.69;99613.98;25110;1315;3068469;-67
2022/02/12 04:28:41;;;;;;;54.80;24.90;;;;;;;4.63;71.02;99611.95;25086;1315;3026633;-65
2022/02/12 04:31:11;;;;;;;55.20;27.40;;;;;;;5.34;68.98;99607.73;25163;1315;3028682;-69
2022/02/12 04:33:41;;;;;;;63.20;29.40;;;;;;;5.37;67.80;99602.27;25123;1315;3030446;-65
2022/02/12 04:36:10;;;;;;;57.80;28.90;;;;;;;5.17;68.08;99605.42;25094;1316;3027142;-67
2022/02/12 04:38:39;;;;;;;55.60;27.50;;;;;;;5.00;68.59;99603.42;25101;1315;3051825;-65
2022/02/12 04:41:08;;;;;;;56.90;28.00;;;;;;;4.81;68.94;99592.26;25141;1316;3028413;-68
2022/02/12 04:43:37;;;;;;;48.10;25.90;;;;;;;4.58;69.59;99592.70;25115;1316;3050959;-66
2022/02/12 04:46:07;;;;;;;50.90;25.60;;;;;;;4.43;70.05;99587.16;25124;1315;3028444;-66
2022/02/12 04:48:38;;;;;;;51.70;25.50;;;;;;;4.30;70.51;99586.52;25120;1314;3026495;-69
2022/02/12 04:51:07;;;;;;;48.20;25.30;;;;;;;4.13;70.99;99587.41;25202;1315;3026944;-64
2022/02/12 04:53:36;;;;;;;51.90;25.30;;;;;;;3.95;71.60;99589.05;25130;1315;3029889;-64
2022/02/12 04:56:05;;;;;;;40.00;21.70;;;;;;;3.95;71.73;99586.77;25169;1315;3026528;-65
2022/02/12 04:58:34;;;;;;;42.80;22.00;;;;;;;3.80;71.76;99581.54;25151;1315;3058162;-66
2022/02/12 05:01:03;;;;;;;45.20;21.10;;;;;;;3.72;71.96;99584.19;25112;1315;3027369;-67
2022/02/12 05:03:33;;;;;;;42.90;21.30;;;;;;;3.63;72.22;99582.40;25046;1315;3054399;-65
2022/02/12 05:06:01;;;;;;;42.70;19.30;;;;;;;3.67;72.32;99584.89;25092;1315;3026445;-66
2022/02/12 05:08:31;;;;;;;35.20;16.10;;;;;;;3.63;72.43;99584.48;25141;1315;3054120;-66
2022/02/12 05:11:00;;;;;;;37.00;19.20;;;;;;;4.16;71.40;99580.21;25091;1315;3027152;-68
2022/02/12 05:13:29;;;;;;;37.60;19.50;;;;;;;4.75;69.19;99572.02;25041;1315;3047695;-67
2022/02/12 05:15:58;;;;;;;39.60;20.00;;;;;;;4.81;68.73;99573.37;25105;1315;3026349;-65
2022/02/12 05:18:26;;;;;;;46.40;23.80;;;;;;;4.64;69.31;99575.33;25103;1315;3067255;-67
2022/02/12 05:20:56;;;;;;;40.60;22.00;;;;;;;4.43;70.12;99579.34;25123;1315;3026221;-64
2022/02/12 05:23:25;;;;;;;40.10;19.90;;;;;;;4.23;70.44;99582.25;25099;1316;3054178;-66
2022/02/12 05:25:54;;;;;;;37.60;19.70;;;;;;;4.14;70.63;99584.25;25132;1314;3026889;-66
2022/02/12 05:28:23;;;;;;;35.90;19.20;;;;;;;4.04;70.96;99585.29;25146;1316;3055458;-64
2022/02/12 05:30:53;;;;;;;34.80;19.00;;;;;;;3.88;71.68;99583.55;25119;1316;3027046;-64
2022/02/12 05:33:22;;;;;;;35.20;19.10;;;;;;;3.86;71.73;99582.89;25110;1315;3026503;-64
2022/02/12 05:35:51;;;;;;;38.90;19.50;;;;;;;3.76;72.25;99586.85;25143;1316;3055212;-67
2022/02/12 05:38:20;;;;;;;41.50;20.90;;;;;;;3.51;73.46;99588.10;25124;1316;3027568;-66
2022/02/12 05:40:49;;;;;;;40.10;20.20;;;;;;;3.40;74.69;99582.88;25135;1315;3048973;-67
2022/02/12 05:43:17;;;;;;;40.20;20.20;;;;;;;3.82;73.55;99573.67;25117;1315;3028899;-69
2022/02/12 05:45:46;;;;;;;36.40;18.20;;;;;;;4.16;72.19;99565.33;25033;1315;3055290;-69
2022/02/12 05:48:16;;;;;;;36.50;19.70;;;;;;;4.16;71.89;99561.84;25134;1315;3027266;-66
2022/02/12 05:50:46;;;;;;;41.10;20.10;;;;;;;3.96;72.37;99564.38;25151;1315;3051236;-66
2022/02/12 05:53:15;;;;;;;42.50;21.90;;;;;;;3.82;73.08;99567.08;25173;1315;3026808;-65
2022/02/12 05:55:44;;;;;;;40.40;20.90;;;;;;;3.59;74.08;99564.84;25130;1316;3054468;-65
2022/02/12 05:58:13;;;;;;;46.20;22.00;;;;;;;3.49;74.81;99564.97;25128;1315;3026478;-66
2022/02/12 06:00:42;;;;;;;45.60;22.50;;;;;;;3.23;75.88;99562.94;25126;1315;3051896;-66
2022/02/12 06:03:11;;;;;;;44.80;23.80;;;;;;;3.05;77.12;99560.00;25154;1315;3026811;-67
2022/02/12 06:05:40;;;;;;;39.30;19.10;;;;;;;2.92;77.78;99563.14;25079;1315;3067563;-65
2022/02/12 06:08:09;;;;;;;43.20;19.50;;;;;;;3.59;76.37;99564.66;25120;1315;3028771;-66
2022/02/12 06:10:38;;;;;;;38.60;19.00;;;;;;;3.92;74.35;99563.98;25182;1315;3026922;-65
2022/02/12 06:13:08;;;;;;;39.60;20.90;;;;;;;3.82;74.86;99559.63;25105;1315;3069810;-65
2022/02/12 06:15:37;;;;;;;45.90;23.10;;;;;;;3.67;75.25;99558.88;25136;1315;3026512;-67
2022/02/12 06:18:08;;;;;;;43.00;22.30;;;;;;;3.51;75.94;99558.52;25138;1315;3050821;-67
2022/02/12 06:20:37;;;;;;;40.80;22.40;;;;;;;3.33;76.67;99560.59;25147;1315;3028050;-68
2022/02/12 06:23:06;;;;;;;46.30;23.10;;;;;;;3.11;77.67;99554.84;25109;1314;3052756;-65
2022/02/12 06:25:35;;;;;;;44.80;22.90;;;;;;;2.91;78.89;99556.94;25155;1315;3027403;-68
2022/02/12 06:28:04;;;;;;;39.50;19.90;;;;;;;3.01;78.87;99548.88;25085;1316;3050741;-70
2022/02/12 06:30:33;;;;;;;44.80;21.30;;;;;;;3.31;78.18;99546.44;25127;1315;3026760;-65
2022/02/12 06:33:02;;;;;;;39.20;19.90;;;;;;;3.47;77.29;99545.11;25179;1315;3027075;-66
2022/02/12 06:35:31;;;;;;;42.70;22.60;;;;;;;3.60;76.95;99544.02;25119;1316;3052213;-70
2022/02/12 06:38:00;;;;;;;49.20;23.70;;;;;;;3.42;77.47;99544.40;25146;1315;3029022;-67
2022/02/12 06:40:30;;;;;;;46.30;23.70;;;;;;;3.34;77.82;99543.41;25092;1315;3058171;-66
2022/02/12 06:42:59;;;;;;;51.80;25.60;;;;;;;3.26;78.63;99544.34;25154;1315;3029189;-67
2022/02/12 06:45:27;;;;;;;54.10;26.00;;;;;;;3.08;79.01;99542.07;25114;1316;3055741;-67
2022/02/12 06:47:56;;;;;;;49.30;22.10;;;;;;;3.03;79.72;99542.23;25151;1315;3026588;-65
2022/02/12 06:50:25;;;;;;;53.60;26.10;;;;;;;3.40;78.75;99540.13;25090;1315;3053776;-67
2022/02/12 06:52:54;;;;;;;55.40;26.50;;;;;;;3.84;77.36;99535.65;25113;1315;3026307;-66
2022/02/12 06:55:24;;;;;;;53.10;26.50;;;;;;;3.61;77.57;99543.30;25121;1315;3048801;-68
2022/02/12 06:57:53;;;;;;;54.30;27.10;;;;;;;3.51;78.24;99541.36;25180;1315;3027448;-68
2022/02/12 07:00:22;;;;;;;59.80;28.60;;;;;;;3.33;78.95;99538.09;25071;1315;3067214;-65
2022/02/12 07:02:51;;;;;;;55.70;27.90;;;;;;;3.26;79.68;99537.42;25198;1315;3026786;-69
2022/02/12 07:05:20;;;;;;;64.80;29.10;;;;;;;3.08;80.36;99538.98;25143;1315;3051851;-68
2022/02/12 07:07:49;;;;;;;55.70;25.90;;;;;;;3.04;80.96;99541.33;25166;1315;3028818;-66
2022/02/12 07:10:19;;;;;;;56.20;26.00;;;;;;;3.54;80.11;99534.86;25176;1316;3054665;-66
2022/02/12 07:12:49;;;;;;;58.10;28.50;;;;;;;3.95;78.17;99536.50;25149;1315;3027338;-66
2022/02/12 07:15:18;;;;;;;63.60;28.60;;;;;;;3.89;78.41;99538.79;25100;1316;3028721;-67
2022/02/12 07:17:47;;;;;;;64.80;30.90;;;;;;;3.94;78.22;99537.77;25116;1316;3053443;-67
2022/02/12 07:20:16;;;;;;;69.80;33.40;;;;;;;3.72;78.69;99543.48;25152;1315;3027091;-67
2022/02/12 07:22:46;;;;;;;82.90;35.40;;;;;;;3.51;80.17;99544.81;25099;1316;3051926;-70
2022/02/12 07:25:15;;;;;;;62.60;28.70;;;;;;;3.48;80.69;99541.27;25180;1315;3028763;-66
2022/02/12 07:27:46;;;;;;;62.80;30.10;;;;;;;4.01;79.39;99539.41;25127;1315;3057369;-68
2022/02/12 07:30:15;;;;;;;65.80;30.20;;;;;;;4.29;77.72;99531.08;25155;1315;3026690;-67
2022/02/12 07:32:45;;;;;;;64.40;31.80;;;;;;;4.41;77.26;99534.13;25139;1315;3052651;-69
2022/02/12 07:35:15;;;;;;;60.50;30.30;;;;;;;4.25;77.58;99534.83;25147;1314;3026177;-67
2022/02/12 07:37:46;;;;;;;65.90;31.70;;;;;;;3.96;78.58;99544.12;25122;1316;3053100;-66
2022/02/12 07:40:16;;;;;;;65.10;31.20;;;;;;;3.78;79.24;99546.94;25156;1315;3026399;-65
2022/02/12 07:42:46;;;;;;;62.30;30.50;;;;;;;3.63;80.13;99550.35;25146;1315;3027016;-67
2022/02/12 07:45:16;;;;;;;63.90;28.90;;;;;;;3.61;80.52;99546.58;25174;1315;3026939;-68
2022/02/12 07:47:45;;;;;;;53.20;23.50;;;;;;;4.17;78.99;99547.92;25160;1315;3026745;-67
2022/02/12 07:50:16;;;;;;;52.60;26.80;;;;;;;4.64;76.50;99542.17;25047;1314;3026603;-69
2022/02/12 07:52:45;;;;;;;56.60;26.70;;;;;;;4.46;76.99;99549.75;25134;1315;3049103;-65
2022/02/12 07:55:14;;;;;;;62.70;31.20;;;;;;;4.09;78.27;99564.13;25113;1315;3026512;-67
2022/02/12 07:57:43;;;;;;;63.00;31.80;;;;;;;3.99;78.96;99564.48;25155;1315;3058375;-67
2022/02/12 08:00:15;;;;;;;66.10;31.50;;;;;;;3.85;79.39;99559.88;25096;1315;3026339;-69
2022/02/12 08:02:43;;;;;;;64.10;31.10;;;;;;;3.73;80.04;99568.05;25108;1316;3027605;-67
2022/02/12 08:05:14;;;;;;;54.00;27.70;;;;;;;4.01;79.94;99561.80;25152;1316;3026628;-68
2022/02/12 08:07:45;;;;;;;59.50;30.10;;;;;;;4.72;77.34;99561.19;25161;1315;3026397;-69
2022/02/12 08:13:02;;;;;;;61.70;30.40;;;;;;;4.10;79.21;99567.23;25175;1313;3055087;-66
2022/02/12 08:15:32;;;;;;;61.20;30.70;;;;;;;4.06;79.50;99573.43;25110;1316;3026818;-66
2022/02/12 08:18:01;;;;;;;64.60;31.10;;;;;;;3.92;80.03;99575.77;25125;1314;3057196;-67
2022/02/12 08:20:32;;;;;;;52.90;26.30;;;;;;;4.02;79.98;99572.00;25140;1316;3027052;-68
2022/02/12 08:23:01;;;;;;;49.40;26.30;;;;;;;4.43;79.12;99570.98;25118;1315;3026401;-67
2022/02/12 08:25:30;;;;;;;53.10;28.70;;;;;;;4.84;77.12;99573.92;25111;1315;3052502;-65
2022/02/12 08:27:59;;;;;;;56.70;26.40;;;;;;;5.02;76.67;99576.92;25160;1316;3026511;-65
2022/02/12 08:30:28;;;;;;;55.50;28.80;;;;;;;4.80;76.30;99573.89;25119;1315;3048931;-65
2022/02/12 08:33:11;;;;;;;58.90;29.00;;;;;;;4.33;78.25;99602.54;25130;1314;3052460;-69
2022/02/12 08:35:40;;;;;;;59.00;30.00;;;;;;;4.28;78.50;99602.54;25127;1315;3027333;-65
2022/02/12 08:38:09;;;;;;;49.50;24.10;;;;;;;4.22;79.02;99605.85;25149;1316;3050481;-65
2022/02/12 08:40:39;;;;;;;46.80;22.50;;;;;;;4.53;78.67;99605.38;25154;1316;3026864;-68
2022/02/12 08:43:11;;;;;;;40.80;22.50;;;;;;;4.79;77.43;99597.02;25147;1316;3027583;-68
2022/02/12 08:45:40;;;;;;;48.00;25.60;;;;;;;4.93;76.32;99595.49;25154;1316;3027205;-69
2022/02/12 08:48:09;;;;;;;51.50;25.70;;;;;;;4.89;76.34;99585.93;25093;1316;3027116;-67
2022/02/12 08:50:39;;;;;;;51.40;27.20;;;;;;;4.60;76.89;99578.77;25186;1315;3053473;-68
2022/02/12 08:53:07;;;;;;;57.60;29.30;;;;;;;4.47;77.16;99578.49;25136;1315;3026528;-68
2022/02/12 08:55:36;;;;;;;51.90;27.40;;;;;;;4.32;77.85;99588.73;25168;1316;3052565;-68
2022/02/12 08:58:09;;;;;;;45.90;24.00;;;;;;;4.24;78.70;99586.20;25097;1315;3027720;-67
2022/02/12 09:00:38;;;;;;;50.70;25.70;;;;;;;4.96;76.69;99583.56;25161;1314;3029772;-67
2022/02/12 09:03:07;;;;;;;46.80;23.40;;;;;;;4.82;76.45;99578.87;25172;1314;3051952;-70
2022/02/12 09:05:36;;;;;;;47.40;24.80;;;;;;;5.15;75.11;99563.13;25135;1316;3026828;-68
2022/02/12 09:08:05;;;;;;;52.50;28.80;;;;;;;4.92;75.45;99560.13;25133;1315;3049423;-70
2022/02/12 09:10:35;;;;;;;52.60;26.80;;;;;;;4.60;76.56;99550.98;25141;1315;3027021;-69
2022/02/12 09:13:04;;;;;;;46.00;25.00;;;;;;;4.69;75.84;99563.52;25163;1316;3026507;-67
2022/02/12 09:15:33;;;;;;;41.60;20.30;;;;;;;4.46;76.66;99581.99;25144;1316;3051935;-67
2022/02/12 09:18:02;;;;;;;44.30;22.60;;;;;;;5.01;76.30;99582.36;25172;1315;3027642;-68
2022/02/12 09:20:34;;;;;;;43.50;23.20;;;;;;;5.40;74.39;99578.33;25145;1314;3058045;-70
2022/02/12 09:23:03;;;;;;;45.00;23.50;;;;;;;5.15;74.68;99572.98;25142;1315;3026405;-68
2022/02/12 09:25:35;;;;;;;49.90;25.80;;;;;;;5.13;74.74;99579.66;25169;1315;3052647;-65
2022/02/12 09:28:24;;;;;;;41.10;23.50;;;;;;;4.72;75.52;99584.26;25176;1315;3056448;-68
2022/02/12 09:30:53;;;;;;;41.70;23.50;;;;;;;4.51;75.98;99582.88;25119;1315;3026556;-66
2022/02/12 09:33:22;;;;;;;49.10;23.10;;;;;;;4.40;76.55;99594.02;25124;1314;3052725;-65
2022/02/12 09:35:53;;;;;;;45.60;23.40;;;;;;;5.14;75.31;99575.13;25134;1315;3026328;-66
2022/02/12 09:38:28;;;;;;;42.20;23.20;;;;;;;5.37;73.94;99579.15;25136;1316;3051701;-67
2022/02/12 09:40:58;;;;;;;42.80;24.10;;;;;;;5.23;73.90;99585.05;25126;1315;3026572;-65
2022/02/12 09:43:28;;;;;;;44.20;23.80;;;;;;;5.05;74.03;99587.42;25178;1315;3028370;-68
2022/02/12 09:46:03;;;;;;;42.20;23.30;;;;;;;4.92;73.99;99584.41;25182;1316;3052146;-67
2022/02/12 09:48:34;;;;;;;51.30;26.30;;;;;;;4.59;75.15;99591.80;25159;1316;3053413;-67
2022/02/12 09:51:03;;;;;;;42.70;22.80;;;;;;;4.54;75.92;99592.83;25148;1316;3026303;-67
2022/02/12 09:53:32;;;;;;;40.10;22.80;;;;;;;5.10;74.60;99585.50;25153;1315;3026865;-66
2022/02/12 09:56:01;;;;;;;40.80;23.60;;;;;;;5.40;73.33;99579.70;25193;1316;3026389;-69
2022/02/12 09:58:31;;;;;;;39.60;21.50;;;;;;;5.29;73.68;99573.52;25156;1316;3059174;-68
2022/02/12 10:01:00;;;;;;;37.40;21.90;;;;;;;5.07;74.10;99567.21;25120;1315;3026620;-66
2022/02/12 10:03:29;;;;;;;46.70;26.30;;;;;;;5.10;73.51;99567.66;25138;1316;3051655;-66
2022/02/12 10:06:00;;;;;;;49.20;23.80;;;;;;;4.99;73.51;99560.58;25148;1317;3026661;-68
2022/02/12 10:08:29;;;;;;;47.90;26.30;;;;;;;4.71;74.79;99577.88;25192;1316;3026554;-66
2022/02/12 10:10:59;;;;;;;40.00;22.50;;;;;;;4.49;76.58;99571.49;25102;1316;3051600;-66
2022/02/12 10:13:30;;;;;;;41.10;22.20;;;;;;;5.17;75.41;99568.89;25129;1315;3026401;-66
2022/02/12 10:16:02;;;;;;;45.10;24.50;;;;;;;6.11;71.72;99572.15;25116;1316;3026149;-67
2022/02/12 10:18:32;;;;;;;50.30;25.50;;;;;;;5.62;72.15;99581.14;25184;1315;3027539;-67
2022/02/12 10:21:02;;;;;;;42.50;24.20;;;;;;;5.37;73.16;99586.09;25134;1316;3027004;-69
2022/02/12 10:23:33;;;;;;;42.10;22.50;;;;;;;5.18;73.91;99598.23;25137;1315;3026224;-66
2022/02/12 10:26:02;;;;;;;50.00;27.90;;;;;;;4.93;74.31;99596.19;25144;1315;3030446;-66
2022/02/12 10:28:33;;;;;;;44.30;26.40;;;;;;;4.81;74.92;99601.45;25176;1315;3028132;-69
2022/02/12 10:31:02;;;;;;;42.00;24.00;;;;;;;4.69;74.96;99593.18;25126;1315;3068663;-68
2022/02/12 10:33:42;;;;;;;43.60;22.50;;;;;;;5.07;74.63;99589.80;25140;1316;3026559;-69
2022/02/12 10:36:13;;;;;;;42.70;23.70;;;;;;;5.26;73.40;99587.38;25135;1316;3055438;-68
2022/02/12 10:38:50;;;;;;;45.70;26.50;;;;;;;5.13;73.62;99593.74;25136;1316;3026435;-69
2022/02/12 10:41:20;;;;;;;45.50;25.10;;;;;;;5.02;73.68;99594.81;25115;1316;3056843;-68
2022/02/12 10:43:53;;;;;;;59.30;28.40;;;;;;;4.85;74.21;99598.39;25135;1315;3026924;-67
2022/02/12 10:46:22;;;;;;;63.00;31.00;;;;;;;4.78;74.25;99597.40;25140;1316;3027615;-66
2022/02/12 10:48:51;;;;;;;59.70;28.20;;;;;;;4.53;74.98;99605.35;25141;1316;3026254;-68
2022/02/12 10:51:21;;;;;;;47.40;23.40;;;;;;;4.41;75.62;99605.75;25167;1315;3026592;-70
2022/02/12 10:54:00;;;;;;;51.90;26.70;;;;;;;4.99;74.68;99595.27;25158;1316;3052570;-68
2022/02/12 10:56:50;;;;;;;47.90;24.80;;;;;;;5.48;72.97;99600.12;25150;1315;3054244;-68
2022/02/12 10:59:21;;;;;;;48.30;25.30;;;;;;;5.17;72.87;99603.15;25082;1316;3071688;-68
2022/02/12 11:01:51;;;;;;;57.70;30.60;;;;;;;4.73;74.63;99600.02;25156;1316;3027162;-68
2022/02/12 11:04:20;;;;;;;51.20;26.30;;;;;;;4.62;75.19;99599.34;25157;1316;3028682;-68
2022/02/12 11:06:49;;;;;;;57.90;27.50;;;;;;;4.33;76.02;99620.77;25087;1316;3028490;-71
2022/02/12 11:09:18;;;;;;;52.10;26.10;;;;;;;4.32;75.97;99615.77;25113;1315;3047134;-68
2022/02/12 11:11:47;;;;;;;46.00;20.50;;;;;;;4.19;76.43;99622.93;25099;1314;3030657;-66
2022/02/12 11:14:17;;;;;;;40.10;19.60;;;;;;;4.50;75.93;99614.48;25145;1316;3026461;-70
2022/02/12 11:16:46;;;;;;;30.20;17.30;;;;;;;4.90;74.46;99600.44;25152;1316;3026413;-69
2022/02/12 11:19:15;;;;;;;40.80;19.50;;;;;;;4.72;74.16;99618.79;25037;1315;3026380;-63
2022/02/12 11:21:44;;;;;;;42.10;23.30;;;;;;;4.45;74.94;99625.42;25122;1315;3052344;-65
2022/02/12 11:24:14;;;;;;;48.40;24.20;;;;;;;4.52;74.47;99624.83;25075;1316;3027149;-68
2022/02/12 11:26:45;;;;;;;52.10;23.10;;;;;;;4.23;75.38;99642.05;25058;1316;3051065;-67
2022/02/12 11:29:44;;;;;;;44.10;20.00;;;;;;;4.16;75.50;99637.77;25071;1316;3026536;-68